Rejestracja

Wszystkie dane podawane są w czasie UTC za wyjątkiem miejsc gdzie jest jednoznacznie podane, że jest inaczej. Dane podawane w serwisie mają charakter informacyjny!!!
Informacje w sprawie dostępu do serwisu pod numerem tel. +48 261-828-138
Informacja dla żołnierzy i pracowników wojska: Prosimy o niezwłoczną zmianę adresu e-mail w profilu użytkownika na pocztę w domenie @ron.mil.pl

Aktualna Pogoda
 
Pogoda w Polsce
11°C Szczecin 8°C Suwałki 10°C Warszawa 10°C Poznan
9°C Opole 8°C Kraków 9°C Rzeszów
Więcej miast w Polsce

Pogoda w Europie
11°C Berlin 11°C Paryz 14°C Bruksela 11°C Oslo
10°C Praga 14°C Zagrzeb
Więcej miast w Europie

Metary wojskowe test
METAR EPCE 250100Z 27007KT 9999 OVC007 09/09 Q1019 RMK 093 095 8/8=
METAR EPDA 250100Z 28012KT 9999 -RA OVC017 11/09 Q1020 RMK 105 091 8/8=
METAR EPDE 250100Z 24004KT 9999 SCT060 BKN090 09/08 Q1022 RMK 092 090 6/3=
METAR EPIR 250100Z 24008KT 9999 BKN060 09/07 Q1021 RMK 087 090 7/7=
METAR EPKS 250100Z 27007KT 9999 -RA SCT007 OVC041 10/10 Q1022 RMK 096 100 8/4=
METAR EPLK 250100Z 26004KT 240V300 9999 FEW030 BKN110 07/07 Q1022 RMK 071 100 5/2=
METAR EPLY 250100Z AUTO 25004KT 08/07 Q1022 RMK 079 095 ///=
METAR EPMB 250100Z 25006KT 9999 -SHRA SCT032CB BKN050 10/09 Q1020 RMK 096 095 7/3=
METAR EPMI 250100Z 25006KT 210V300 9999 BKN030 BKN045 09/09 Q1021 RMK 093 100 7/6=
METAR EPMM 250100Z 28002KT 9999 BKN095 06/06 Q1021 RMK 063 100 7/7=
SPECI EPOK 250107Z 26006KT 7000 -SHRA OVC015TCU 10/09 Q1019 RMK 099 096 8/8=
METAR EPPR 250100Z AUTO 23004KT VV050 10/08 Q1020 RMK 101 089 ///=
METAR EPPW 250100Z 26004KT 9999 -RA SCT033 BKN070 09/09 Q1022 RMK 087 100 7/3=
METAR EPSN 250100Z 27008KT 9999 SCT007 BKN020 10/10 Q1021 RMK 097 100 6/3=
METAR EPTM 250100Z AUTO 24002KT VV064 08/07 Q1022 RMK 078 092 ///=


 

Prawa autorskie©2007 SSH SZ RP. Wszelkie prawa zastrzeżone.